createdAt,value
2023-03-14T05:14:49.128Z,3.80
2023-03-14T05:17:53.924Z,3.87
2023-03-14T05:20:56.575Z,4.03
2023-03-14T05:24:00.454Z,4.12
2023-03-14T05:27:06.004Z,4.34
2023-03-14T05:30:10.384Z,4.44
2023-03-14T05:33:14.291Z,4.66
2023-03-14T05:36:17.435Z,4.96
2023-03-14T05:39:20.515Z,5.19
2023-03-14T05:42:24.030Z,5.68
2023-03-14T05:45:27.137Z,6.15
2023-03-14T05:48:30.432Z,6.45
2023-03-14T05:51:33.503Z,6.77
2023-03-14T05:54:36.608Z,7.03
2023-03-14T05:57:39.785Z,7.39
2023-03-14T06:00:46.085Z,7.68
2023-03-14T06:03:49.854Z,7.89
2023-03-14T06:06:52.683Z,8.20
2023-03-14T06:09:56.529Z,8.56
2023-03-14T06:12:59.485Z,8.81
2023-03-14T06:16:02.352Z,9.11
2023-03-14T06:19:05.622Z,8.94
2023-03-14T06:22:08.925Z,9.94
2023-03-14T06:25:12.452Z,11.56
2023-03-14T06:28:16.419Z,12.17
2023-03-14T06:31:19.045Z,11.49
2023-03-14T06:34:23.084Z,10.90
2023-03-14T06:37:25.673Z,10.66
2023-03-14T06:40:31.443Z,10.33
2023-03-14T06:43:35.041Z,10.19
2023-03-14T06:46:38.547Z,10.02
2023-03-14T06:49:41.189Z,10.00
2023-03-14T06:52:48.888Z,9.88
2023-03-14T06:55:52.210Z,9.77
2023-03-14T06:58:55.485Z,9.68
2023-03-14T07:01:59.204Z,9.80
2023-03-14T07:05:04.828Z,9.75
2023-03-14T07:08:08.828Z,9.82
2023-03-14T07:11:12.331Z,9.97
2023-03-14T07:14:15.296Z,9.89
2023-03-14T07:17:18.484Z,10.09
2023-03-14T07:20:21.612Z,10.41
2023-03-14T07:23:24.997Z,10.77
2023-03-14T07:26:27.957Z,10.96
2023-03-14T07:29:31.209Z,11.08
2023-03-14T07:32:35.005Z,10.88
2023-03-14T07:35:38.427Z,11.66
2023-03-14T07:38:41.454Z,12.40
2023-03-14T07:41:44.857Z,12.72
2023-03-14T07:44:54.813Z,13.51
2023-03-14T07:47:58.614Z,14.54
2023-03-14T07:51:01.620Z,15.67
2023-03-14T07:54:04.649Z,15.49
2023-03-14T07:57:07.216Z,14.53
2023-03-14T08:00:13.713Z,14.09
2023-03-14T08:03:18.139Z,15.05
2023-03-14T08:06:21.118Z,15.51
2023-03-14T08:09:24.013Z,15.35
2023-03-14T08:12:26.973Z,15.76
2023-03-14T08:15:31.165Z,16.33
2023-03-14T08:18:34.545Z,15.88
2023-03-14T08:21:37.058Z,15.52
2023-03-14T08:24:40.327Z,15.58
2023-03-14T08:27:43.972Z,16.26
2023-03-14T08:30:47.983Z,16.60
2023-03-14T08:33:53.122Z,17.38
2023-03-14T08:36:57.821Z,19.31
2023-03-14T08:40:00.620Z,19.62
2023-03-14T08:43:03.697Z,20.46
2023-03-14T08:46:06.700Z,22.24
2023-03-14T08:49:09.656Z,22.42
2023-03-14T08:52:12.673Z,23.03
2023-03-14T08:55:15.660Z,20.60
2023-03-14T08:58:18.346Z,20.77
2023-03-14T09:01:25.123Z,20.92
2023-03-14T09:04:27.959Z,20.58
2023-03-14T09:07:31.138Z,19.59
2023-03-14T09:10:34.066Z,18.94
2023-03-14T09:13:37.281Z,19.13
2023-03-14T09:16:39.937Z,19.30
2023-03-14T09:19:42.955Z,19.35
2023-03-14T09:22:45.585Z,18.58
2023-03-14T09:25:48.553Z,18.10
2023-03-14T09:28:51.064Z,18.44
2023-03-14T09:31:54.194Z,18.23
2023-03-14T09:34:57.246Z,18.44
2023-03-14T09:38:00.092Z,18.89
2023-03-14T09:41:04.592Z,18.70
2023-03-14T09:44:17.249Z,19.01
2023-03-14T09:47:21.056Z,18.93
2023-03-14T09:50:24.906Z,19.02
2023-03-14T09:53:40.384Z,19.54
2023-03-14T09:56:43.168Z,19.50
2023-03-14T09:59:47.440Z,18.79
2023-03-14T10:02:54.950Z,18.84
2023-03-14T10:05:58.024Z,19.08
2023-03-14T10:09:00.599Z,19.15
2023-03-14T10:12:08.859Z,19.11
2023-03-14T10:15:18.853Z,19.10
2023-03-14T10:18:26.015Z,19.56
2023-03-14T10:21:31.171Z,18.76
2023-03-14T10:24:35.764Z,18.36
2023-03-14T10:27:38.313Z,19.25
2023-03-14T10:30:46.386Z,19.93
2023-03-14T10:34:04.117Z,20.01
2023-03-14T10:37:17.764Z,20.57
2023-03-14T10:40:28.450Z,20.93
2023-03-14T10:43:36.756Z,20.93
2023-03-14T10:46:39.873Z,21.19
2023-03-14T10:50:15.686Z,21.39
2023-03-14T10:53:19.735Z,20.83
2023-03-14T10:56:24.708Z,21.09
2023-03-14T10:59:37.750Z,21.16
2023-03-14T11:02:40.329Z,21.40
2023-03-14T11:06:07.942Z,21.24
2023-03-14T11:09:21.929Z,21.41
2023-03-14T11:12:43.302Z,21.83
2023-03-14T11:15:58.679Z,22.76
2023-03-14T11:19:23.511Z,23.21
2023-03-14T11:22:51.712Z,22.10
2023-03-14T11:25:54.536Z,21.48
2023-03-14T11:29:14.184Z,20.65
2023-03-14T11:32:39.286Z,20.70
2023-03-14T11:35:54.211Z,21.19
2023-03-14T11:38:59.143Z,21.70
2023-03-14T11:42:04.704Z,22.30
2023-03-14T11:45:20.057Z,21.99
2023-03-14T11:48:37.956Z,21.28
2023-03-14T11:51:45.538Z,20.62
2023-03-14T11:54:55.043Z,20.85
2023-03-14T11:58:02.877Z,21.11
2023-03-14T12:01:12.269Z,20.94
2023-03-14T12:04:38.296Z,20.77
2023-03-14T12:07:47.718Z,20.38
2023-03-14T12:10:54.665Z,20.16
2023-03-14T12:13:57.249Z,20.21
2023-03-14T12:17:19.684Z,20.02
2023-03-14T12:20:25.614Z,20.33
2023-03-14T12:23:35.345Z,20.24
2023-03-14T12:27:02.458Z,20.18
2023-03-14T12:30:18.525Z,19.98
2023-03-14T12:33:32.267Z,19.65
2023-03-14T12:37:10.458Z,19.79
2023-03-14T12:40:33.743Z,19.63
2023-03-14T12:43:38.268Z,19.65
2023-03-14T12:46:40.931Z,19.82
2023-03-14T12:49:44.580Z,19.63
2023-03-14T12:53:08.880Z,19.67
2023-03-14T12:56:20.685Z,19.35
2023-03-14T12:59:29.259Z,19.37
2023-03-14T13:02:46.009Z,19.18
2023-03-14T13:06:04.270Z,19.24
2023-03-14T13:09:30.523Z,19.06
2023-03-14T13:12:41.195Z,18.95
2023-03-14T13:15:47.514Z,18.90
2023-03-14T13:18:59.813Z,18.96
2023-03-14T13:22:06.313Z,18.80
2023-03-14T13:25:11.734Z,18.75
2023-03-14T13:28:15.568Z,18.74
2023-03-14T13:31:25.632Z,18.78
2023-03-14T13:34:34.304Z,18.63
2023-03-14T13:37:40.703Z,18.53
2023-03-14T13:40:46.152Z,18.41
2023-03-14T13:43:49.500Z,18.35
2023-03-14T13:46:52.440Z,18.38
2023-03-14T13:49:58.709Z,18.36
2023-03-14T13:53:03.853Z,18.44
2023-03-14T13:56:10.909Z,18.41
2023-03-14T13:59:26.994Z,18.40
2023-03-14T14:02:31.359Z,18.44
2023-03-14T14:05:38.530Z,18.53
2023-03-14T14:08:42.965Z,18.53
2023-03-14T14:12:16.834Z,18.68
2023-03-14T14:15:27.287Z,18.73
2023-03-14T14:18:33.421Z,18.74
2023-03-14T14:21:36.340Z,18.61
2023-03-14T14:24:40.526Z,18.77
2023-03-14T14:27:49.470Z,18.85
2023-03-14T14:31:19.466Z,18.82
2023-03-14T14:34:22.111Z,18.91
2023-03-14T14:37:30.652Z,18.82
2023-03-14T14:40:34.661Z,18.73
2023-03-14T14:43:41.303Z,18.69
2023-03-14T14:46:44.119Z,18.74
2023-03-14T14:49:48.796Z,18.69
2023-03-14T14:53:00.928Z,18.75
2023-03-14T14:56:26.434Z,18.74
2023-03-14T14:59:32.590Z,18.82
2023-03-14T15:02:46.613Z,18.76
2023-03-14T15:05:49.412Z,18.67
2023-03-14T15:08:55.701Z,18.69
2023-03-14T15:11:58.246Z,18.55
2023-03-14T15:15:00.988Z,18.31
2023-03-14T15:18:03.684Z,18.14
2023-03-14T15:21:06.525Z,17.95
2023-03-14T15:24:10.837Z,17.96
2023-03-14T15:27:16.207Z,17.95
2023-03-14T15:30:19.492Z,17.72
2023-03-14T15:33:26.953Z,17.58
2023-03-14T15:36:33.058Z,17.51
2023-03-14T15:39:36.289Z,17.56
2023-03-14T15:42:38.938Z,17.52
2023-03-14T15:45:42.641Z,17.43
2023-03-14T15:48:46.544Z,17.30
2023-03-14T15:51:49.925Z,17.20
2023-03-14T15:54:52.472Z,17.13
2023-03-14T15:57:55.369Z,16.30
2023-03-14T16:00:58.026Z,15.57
2023-03-14T16:04:03.174Z,15.21
2023-03-14T16:07:05.763Z,15.09
2023-03-14T16:10:12.348Z,14.67
2023-03-14T16:13:15.754Z,14.41
2023-03-14T16:16:18.653Z,14.10
2023-03-14T16:19:21.360Z,13.92
